createdAt,value
2023-12-30T00:00:18.820Z,12.30
2023-12-30T00:01:18.316Z,11.70
2023-12-30T00:02:20.594Z,10.20
2023-12-30T00:03:23.042Z,12.10
2023-12-30T00:04:27.504Z,11.00
2023-12-30T00:05:29.862Z,10.40
2023-12-30T00:06:33.088Z,10.55
2023-12-30T00:07:35.812Z,9.90
2023-12-30T00:08:37.960Z,11.40
2023-12-30T00:09:41.722Z,11.00
2023-12-30T00:10:44.158Z,10.70
2023-12-30T00:11:46.800Z,10.50
2023-12-30T00:12:49.456Z,11.00
2023-12-30T00:13:52.244Z,10.90
2023-12-30T00:14:54.290Z,12.00
2023-12-30T00:15:56.544Z,11.20
2023-12-30T00:17:00.053Z,9.40
2023-12-30T00:18:02.921Z,11.00
2023-12-30T00:19:06.042Z,10.27
2023-12-30T00:20:09.308Z,10.70
2023-12-30T00:21:12.376Z,11.20
2023-12-30T00:22:14.637Z,10.82
2023-12-30T00:23:17.261Z,12.40
2023-12-30T00:24:19.389Z,9.60
2023-12-30T00:25:21.578Z,10.50
2023-12-30T00:26:26.994Z,10.70
2023-12-30T00:27:45.976Z,9.91
2023-12-30T00:30:07.869Z,12.00
2023-12-30T00:31:13.874Z,11.30
2023-12-30T00:32:16.137Z,7.30
2023-12-30T00:33:19.602Z,11.70
2023-12-30T00:34:22.139Z,11.50
2023-12-30T00:35:24.817Z,12.40
2023-12-30T00:36:30.281Z,11.20
2023-12-30T00:37:33.759Z,9.90
2023-12-30T00:38:35.862Z,10.20
2023-12-30T00:39:40.416Z,8.70
2023-12-30T00:40:43.249Z,10.30
2023-12-30T00:41:45.651Z,8.50
2023-12-30T00:42:50.516Z,11.30
2023-12-30T00:43:53.183Z,7.40
2023-12-30T00:44:55.427Z,12.30
2023-12-30T00:45:57.491Z,11.10
2023-12-30T00:47:00.377Z,9.91
2023-12-30T00:48:02.718Z,11.11
2023-12-30T00:49:05.476Z,9.70
2023-12-30T00:50:10.223Z,10.90
2023-12-30T00:51:12.976Z,10.10
2023-12-30T00:52:16.399Z,10.20
2023-12-30T00:53:18.511Z,10.10
2023-12-30T00:54:20.763Z,11.00
2023-12-30T00:55:23.579Z,9.80
2023-12-30T00:56:27.302Z,10.40
2023-12-30T00:57:29.810Z,10.10
2023-12-30T00:58:32.561Z,11.10
2023-12-30T00:59:35.223Z,10.60
2023-12-30T01:00:38.748Z,11.60
2023-12-30T01:01:41.580Z,10.50
2023-12-30T01:02:44.239Z,11.10
2023-12-30T01:03:47.038Z,10.00
2023-12-30T01:04:50.212Z,10.90
2023-12-30T01:05:52.593Z,9.36
2023-12-30T01:06:54.993Z,10.40
2023-12-30T01:07:57.374Z,10.70
2023-12-30T01:08:59.738Z,12.00
2023-12-30T01:10:02.373Z,10.20
2023-12-30T01:11:04.950Z,10.80
2023-12-30T01:12:07.981Z,12.20
2023-12-30T01:13:10.256Z,10.82
2023-12-30T01:14:13.483Z,9.20
2023-12-30T01:15:15.761Z,9.30
2023-12-30T01:16:20.405Z,9.80
2023-12-30T01:17:22.971Z,11.00
2023-12-30T01:18:25.388Z,10.20
2023-12-30T01:19:29.111Z,10.40
2023-12-30T01:20:33.395Z,10.60
2023-12-30T01:21:35.726Z,10.20
2023-12-30T01:22:38.081Z,11.00
2023-12-30T01:23:40.596Z,10.50
2023-12-30T01:24:42.780Z,9.82
2023-12-30T01:25:45.440Z,11.20
2023-12-30T01:26:48.530Z,9.80
2023-12-30T01:27:51.380Z,7.80
2023-12-30T01:28:53.503Z,9.10
2023-12-30T01:29:56.185Z,9.60
2023-12-30T01:30:58.950Z,9.73
2023-12-30T01:32:01.703Z,10.70
2023-12-30T01:33:05.160Z,10.40
2023-12-30T01:34:07.807Z,9.50
2023-12-30T01:35:10.735Z,7.90
2023-12-30T01:36:14.818Z,9.20
2023-12-30T01:37:17.390Z,9.73
2023-12-30T01:38:19.570Z,8.70
2023-12-30T01:39:21.708Z,10.00
2023-12-30T01:40:26.226Z,10.80
2023-12-30T01:41:28.650Z,10.30
2023-12-30T01:42:30.880Z,9.70
2023-12-30T01:43:34.777Z,8.10
2023-12-30T01:44:37.280Z,10.50
2023-12-30T01:45:39.315Z,9.90
2023-12-30T01:46:43.900Z,9.91
2023-12-30T01:47:46.383Z,9.90
2023-12-30T01:48:49.545Z,11.09
2023-12-30T01:49:52.570Z,8.91
2023-12-30T01:50:56.847Z,9.90
2023-12-30T01:52:00.054Z,10.30
2023-12-30T01:53:02.656Z,9.00
2023-12-30T01:54:05.976Z,9.20
2023-12-30T01:55:09.147Z,10.50
2023-12-30T01:56:13.076Z,11.60
2023-12-30T01:57:16.048Z,9.00
2023-12-30T01:58:20.471Z,9.70
2023-12-30T01:59:23.378Z,10.80
2023-12-30T02:00:28.595Z,8.40
2023-12-30T02:01:30.993Z,10.80
2023-12-30T02:02:34.302Z,2.10
2023-12-30T02:03:37.572Z,10.30
2023-12-30T02:04:40.893Z,10.10
2023-12-30T02:05:43.972Z,10.40
2023-12-30T02:06:47.044Z,9.00
2023-12-30T02:07:49.755Z,10.20
2023-12-30T02:08:52.981Z,11.00
2023-12-30T02:09:55.948Z,10.20
2023-12-30T02:10:58.799Z,9.50
2023-12-30T02:12:01.703Z,10.18
2023-12-30T02:13:04.510Z,11.00
2023-12-30T02:14:25.513Z,11.00
2023-12-30T02:15:28.271Z,10.50
2023-12-30T02:16:31.981Z,10.50
2023-12-30T02:17:34.807Z,9.60
2023-12-30T02:18:39.230Z,9.20
2023-12-30T02:19:41.482Z,9.20
2023-12-30T02:20:46.804Z,10.10
2023-12-30T02:21:50.321Z,9.90
2023-12-30T02:22:52.788Z,9.60
2023-12-30T02:23:55.190Z,9.40
2023-12-30T02:24:57.425Z,10.00
2023-12-30T02:25:59.875Z,9.20
2023-12-30T02:27:02.456Z,9.40
2023-12-30T02:28:04.823Z,9.60
2023-12-30T02:29:10.347Z,8.90
2023-12-30T02:30:15.151Z,7.80
2023-12-30T02:31:18.450Z,10.10
2023-12-30T02:32:21.207Z,9.60
2023-12-30T02:33:24.478Z,10.10
2023-12-30T02:34:27.540Z,9.30
2023-12-30T02:35:29.764Z,9.73
2023-12-30T02:36:33.785Z,10.50
2023-12-30T02:37:36.197Z,8.60
2023-12-30T02:38:38.582Z,0.20
2023-12-30T02:39:41.688Z,8.80
2023-12-30T02:40:45.946Z,9.10
2023-12-30T02:41:48.339Z,10.50
2023-12-30T02:42:50.819Z,9.00
2023-12-30T02:43:59.314Z,9.50
2023-12-30T02:45:01.813Z,11.00
2023-12-30T02:46:04.342Z,9.50
2023-12-30T02:47:07.169Z,10.60
2023-12-30T02:48:09.495Z,10.60
2023-12-30T02:49:12.202Z,10.10
2023-12-30T02:50:15.584Z,9.80
2023-12-30T02:51:20.126Z,9.90
2023-12-30T02:52:23.750Z,8.20
2023-12-30T02:53:26.041Z,8.73
2023-12-30T02:54:28.857Z,8.90
2023-12-30T02:55:31.661Z,9.64
2023-12-30T02:56:36.111Z,10.30
2023-12-30T02:57:48.446Z,9.50
2023-12-30T02:58:42.771Z,9.50
2023-12-30T02:59:45.109Z,9.60
2023-12-30T03:00:48.157Z,9.20
2023-12-30T03:01:52.302Z,9.60
2023-12-30T03:02:54.758Z,8.73
2023-12-30T03:03:59.756Z,9.60
2023-12-30T03:05:02.521Z,10.20
2023-12-30T03:06:06.304Z,9.70
2023-12-30T03:07:09.115Z,8.90
2023-12-30T03:08:11.290Z,9.10
2023-12-30T03:09:14.008Z,9.80
2023-12-30T03:10:17.273Z,11.20
2023-12-30T03:11:20.433Z,10.00
2023-12-30T03:12:22.872Z,10.00
2023-12-30T03:13:25.726Z,11.40
2023-12-30T03:14:28.459Z,9.30
2023-12-30T03:15:30.618Z,8.50
2023-12-30T03:16:34.839Z,9.70
2023-12-30T03:17:38.237Z,10.20
2023-12-30T03:18:44.128Z,9.90
2023-12-30T03:19:47.611Z,10.30
2023-12-30T03:20:50.470Z,9.40
2023-12-30T03:21:53.395Z,10.00
2023-12-30T03:22:55.914Z,9.82
2023-12-30T03:23:58.241Z,9.80
2023-12-30T03:25:00.431Z,7.90
2023-12-30T03:26:04.811Z,11.10
2023-12-30T03:27:07.502Z,10.60
2023-12-30T03:28:09.930Z,9.10
2023-12-30T03:29:12.403Z,9.70
2023-12-30T03:30:15.672Z,9.40
2023-12-30T03:31:26.052Z,9.90
2023-12-30T03:32:28.890Z,10.90
2023-12-30T03:33:31.577Z,10.80
2023-12-30T03:34:33.816Z,9.40
2023-12-30T03:35:37.300Z,10.27
2023-12-30T03:36:40.664Z,9.80
2023-12-30T03:37:42.919Z,8.91
2023-12-30T03:38:47.422Z,11.00
2023-12-30T03:39:49.909Z,9.70
2023-12-30T03:40:53.005Z,7.20
2023-12-30T03:41:55.502Z,8.50
2023-12-30T03:42:58.051Z,9.60
2023-12-30T03:44:00.678Z,11.00
2023-12-30T03:45:03.312Z,10.60
2023-12-30T03:46:06.628Z,10.10
2023-12-30T03:47:09.249Z,9.60
2023-12-30T03:48:13.138Z,9.09
2023-12-30T03:49:15.592Z,9.30
2023-12-30T03:50:19.787Z,10.50
2023-12-30T03:51:22.412Z,9.80
2023-12-30T03:52:24.808Z,9.70
2023-12-30T03:53:26.983Z,8.80
2023-12-30T03:54:29.129Z,9.40
2023-12-30T03:55:31.444Z,9.70
2023-12-30T03:56:38.393Z,11.10
2023-12-30T03:57:41.101Z,9.70
2023-12-30T03:58:43.604Z,11.40
2023-12-30T03:59:46.156Z,3.80
2023-12-30T04:00:49.529Z,11.20
2023-12-30T04:01:51.758Z,10.50
2023-12-30T04:02:54.047Z,10.70
2023-12-30T04:03:56.380Z,10.10
2023-12-30T04:04:58.782Z,10.00
2023-12-30T04:06:01.958Z,11.00
2023-12-30T04:07:04.478Z,10.30
2023-12-30T04:08:07.273Z,9.50
2023-12-30T04:09:10.509Z,10.20
2023-12-30T04:10:15.084Z,11.30
2023-12-30T04:11:18.375Z,11.40
2023-12-30T04:12:20.848Z,11.82
2023-12-30T04:13:23.627Z,10.09
2023-12-30T04:14:25.860Z,11.40
2023-12-30T04:15:28.666Z,11.40
2023-12-30T04:16:33.027Z,11.10
2023-12-30T04:17:35.425Z,12.60
2023-12-30T04:18:38.128Z,11.00
2023-12-30T04:19:40.916Z,10.30
2023-12-30T04:20:43.484Z,11.91
2023-12-30T04:21:46.170Z,10.60
2023-12-30T04:22:48.466Z,10.90
2023-12-30T04:23:50.717Z,11.40
2023-12-30T04:24:54.659Z,12.20
2023-12-30T04:25:57.869Z,12.20
2023-12-30T04:27:00.306Z,12.64
2023-12-30T04:28:03.128Z,11.00
2023-12-30T04:29:05.199Z,10.80
2023-12-30T04:30:08.824Z,12.18
2023-12-30T04:31:11.966Z,10.90
2023-12-30T04:33:29.647Z,11.60
2023-12-30T04:34:32.867Z,9.40
2023-12-30T04:35:35.079Z,13.50
2023-12-30T04:36:40.119Z,11.40
2023-12-30T04:37:42.556Z,12.20
2023-12-30T04:38:45.097Z,11.70
2023-12-30T04:39:48.966Z,11.70
2023-12-30T04:40:52.392Z,10.90
2023-12-30T04:41:56.363Z,9.90
2023-12-30T04:42:58.536Z,11.20
2023-12-30T04:44:00.702Z,10.10
2023-12-30T04:45:03.406Z,9.50
2023-12-30T04:46:06.304Z,10.50
2023-12-30T04:47:08.833Z,10.60
2023-12-30T04:48:11.258Z,10.70
2023-12-30T04:49:13.734Z,11.00
2023-12-30T04:50:18.391Z,11.20
2023-12-30T04:51:21.538Z,11.60
2023-12-30T04:52:24.046Z,12.00
2023-12-30T04:53:26.369Z,12.40
2023-12-30T04:54:28.585Z,11.80
2023-12-30T04:55:30.997Z,11.70
2023-12-30T04:56:35.000Z,11.60
2023-12-30T04:57:37.609Z,11.20
2023-12-30T04:58:39.932Z,10.10
2023-12-30T04:59:42.481Z,10.60
2023-12-30T05:00:44.735Z,10.50
2023-12-30T05:01:47.234Z,9.90
2023-12-30T05:02:50.310Z,10.60
2023-12-30T05:03:54.122Z,10.30
2023-12-30T05:04:56.516Z,10.90
2023-12-30T05:05:59.252Z,10.50
2023-12-30T05:07:02.757Z,10.60
2023-12-30T05:08:06.881Z,10.40
2023-12-30T05:09:09.106Z,11.40
2023-12-30T05:10:13.338Z,11.10
2023-12-30T05:11:16.356Z,12.20
2023-12-30T05:12:18.631Z,12.64
2023-12-30T05:13:21.117Z,11.00
2023-12-30T05:14:23.382Z,10.20
2023-12-30T05:15:25.576Z,12.00
2023-12-30T05:16:29.044Z,11.10
2023-12-30T05:17:32.781Z,10.50
2023-12-30T05:18:35.408Z,11.80
2023-12-30T05:19:37.787Z,10.60
2023-12-30T05:20:41.810Z,11.40
2023-12-30T05:21:44.231Z,11.60
2023-12-30T05:22:46.980Z,11.90
2023-12-30T05:23:50.074Z,10.50
2023-12-30T05:24:52.368Z,11.30
2023-12-30T05:25:54.613Z,11.90
2023-12-30T05:26:59.004Z,9.80
2023-12-30T05:28:01.200Z,11.82
2023-12-30T05:29:03.405Z,11.00
2023-12-30T05:30:09.848Z,10.20
2023-12-30T05:31:13.115Z,11.00
2023-12-30T05:32:15.285Z,9.10
2023-12-30T05:33:18.764Z,11.10
2023-12-30T05:34:21.513Z,9.70
2023-12-30T05:35:23.550Z,9.60
2023-12-30T05:36:27.120Z,10.00
2023-12-30T05:37:29.534Z,11.40
2023-12-30T05:38:32.199Z,8.80
2023-12-30T05:39:34.453Z,10.80
2023-12-30T05:40:37.951Z,11.00
2023-12-30T05:41:40.245Z,10.90
2023-12-30T05:42:42.374Z,10.10
2023-12-30T05:43:45.117Z,11.60
2023-12-30T05:44:48.300Z,10.82
2023-12-30T05:45:50.442Z,9.73
2023-12-30T05:46:53.298Z,11.40
2023-12-30T05:47:56.096Z,10.40
2023-12-30T05:48:58.439Z,10.55
2023-12-30T05:50:00.820Z,11.20
2023-12-30T05:51:03.231Z,10.90
2023-12-30T05:52:05.639Z,2.40
2023-12-30T05:53:07.740Z,9.90
2023-12-30T05:54:11.101Z,12.20
2023-12-30T05:55:13.627Z,11.20
2023-12-30T05:56:24.389Z,11.18
2023-12-30T05:57:27.917Z,12.70
2023-12-30T05:58:30.265Z,11.70
2023-12-30T05:59:32.483Z,11.70
2023-12-30T06:00:35.713Z,12.80
2023-12-30T06:03:02.845Z,6.30
2023-12-30T06:04:05.629Z,10.91
2023-12-30T06:05:08.684Z,12.90
2023-12-30T06:06:11.639Z,10.20
2023-12-30T06:07:14.003Z,11.20
2023-12-30T06:08:16.194Z,11.10
2023-12-30T06:09:19.033Z,12.20
2023-12-30T06:10:22.559Z,11.40
2023-12-30T06:11:25.159Z,11.70
2023-12-30T06:12:27.778Z,10.80
2023-12-30T06:13:29.989Z,10.80
2023-12-30T06:14:32.775Z,13.80
2023-12-30T06:15:35.118Z,11.50
2023-12-30T06:16:38.218Z,12.00
2023-12-30T06:17:40.519Z,11.80
2023-12-30T06:18:42.750Z,11.80
2023-12-30T06:19:45.099Z,10.50
2023-12-30T06:20:48.872Z,11.50
2023-12-30T06:21:51.665Z,10.60
2023-12-30T06:22:53.883Z,11.64
2023-12-30T06:23:56.294Z,10.00
2023-12-30T06:24:58.629Z,10.30
2023-12-30T06:26:01.396Z,11.80
2023-12-30T06:27:04.136Z,10.50
2023-12-30T06:28:07.110Z,11.73
2023-12-30T06:29:09.987Z,11.80
2023-12-30T06:30:13.695Z,11.00
2023-12-30T06:31:16.290Z,11.50
2023-12-30T06:32:19.024Z,9.60
2023-12-30T06:33:23.269Z,11.50
2023-12-30T06:34:26.293Z,12.30
2023-12-30T06:35:28.560Z,12.36
2023-12-30T06:36:32.980Z,12.00
2023-12-30T06:37:35.197Z,12.40
2023-12-30T06:38:37.746Z,12.50
2023-12-30T06:39:39.955Z,14.90
2023-12-30T06:40:42.470Z,13.60
2023-12-30T06:41:44.665Z,14.50
2023-12-30T06:42:46.933Z,15.20
2023-12-30T06:43:49.664Z,15.00
2023-12-30T06:44:52.364Z,17.00
2023-12-30T06:45:54.615Z,16.00
2023-12-30T06:46:57.327Z,15.90
2023-12-30T06:47:59.717Z,13.30
2023-12-30T06:49:02.022Z,13.10
2023-12-30T06:50:05.415Z,12.50
2023-12-30T06:51:11.346Z,12.40
2023-12-30T06:52:13.556Z,13.00
2023-12-30T06:53:15.672Z,13.70
2023-12-30T06:54:18.112Z,12.90
2023-12-30T06:55:23.670Z,13.80
2023-12-30T06:56:25.973Z,14.00
2023-12-30T06:57:28.163Z,12.10
2023-12-30T06:58:30.841Z,12.10
2023-12-30T06:59:32.863Z,12.80
2023-12-30T07:00:35.633Z,13.10
2023-12-30T07:01:37.777Z,11.67
2023-12-30T07:02:40.150Z,11.80
2023-12-30T07:03:42.283Z,13.00
2023-12-30T07:04:45.011Z,11.70
2023-12-30T07:05:47.274Z,11.10
2023-12-30T07:06:50.551Z,11.80
2023-12-30T07:07:52.799Z,11.40
2023-12-30T07:08:55.471Z,13.20
2023-12-30T07:09:58.216Z,12.10
2023-12-30T07:11:01.735Z,13.40
2023-12-30T07:12:04.729Z,9.90
2023-12-30T07:13:07.829Z,8.20
2023-12-30T07:14:10.064Z,10.91
2023-12-30T07:15:13.314Z,13.30
2023-12-30T07:16:17.237Z,12.10
2023-12-30T07:17:19.732Z,11.30
2023-12-30T07:18:22.061Z,12.10
2023-12-30T07:19:24.267Z,11.20
2023-12-30T07:20:26.796Z,12.20
2023-12-30T07:21:29.286Z,9.89
2023-12-30T07:22:33.332Z,11.30
2023-12-30T07:23:35.635Z,12.30
2023-12-30T07:24:37.990Z,12.10
2023-12-30T07:25:41.383Z,12.20
2023-12-30T07:26:44.321Z,11.60
2023-12-30T07:27:48.099Z,11.70
2023-12-30T07:28:50.785Z,12.40
2023-12-30T07:29:53.054Z,11.70
2023-12-30T07:30:56.567Z,12.55
2023-12-30T07:32:00.007Z,11.36
2023-12-30T07:33:03.685Z,11.80
2023-12-30T07:34:06.414Z,12.10
2023-12-30T07:35:10.258Z,11.90
2023-12-30T07:36:14.530Z,11.40
2023-12-30T07:37:17.910Z,10.80
2023-12-30T07:38:19.999Z,10.10
2023-12-30T07:39:22.486Z,11.70
2023-12-30T07:40:26.897Z,13.30
2023-12-30T07:41:29.162Z,11.70
2023-12-30T07:42:31.759Z,12.50
2023-12-30T07:43:36.024Z,12.50
2023-12-30T07:44:39.320Z,12.80
2023-12-30T07:45:42.509Z,11.40
2023-12-30T07:46:45.739Z,12.10
2023-12-30T07:47:49.083Z,12.90
2023-12-30T07:48:51.933Z,13.20
2023-12-30T07:49:54.277Z,13.60
2023-12-30T07:50:58.317Z,13.10
2023-12-30T07:52:01.915Z,11.70
2023-12-30T07:53:04.843Z,11.70
2023-12-30T07:54:07.125Z,12.60
2023-12-30T07:55:09.419Z,9.90
2023-12-30T07:56:13.493Z,12.50
2023-12-30T07:57:16.340Z,12.90
2023-12-30T07:58:18.649Z,12.20
2023-12-30T07:59:20.964Z,12.30
2023-12-30T08:00:24.587Z,13.50
2023-12-30T08:01:26.880Z,11.80
2023-12-30T08:02:28.893Z,12.30
2023-12-30T08:03:30.997Z,12.11
2023-12-30T08:04:33.242Z,10.80
2023-12-30T08:05:35.481Z,12.50
2023-12-30T08:06:41.085Z,12.90
2023-12-30T08:07:43.494Z,14.70
2023-12-30T08:08:45.621Z,11.90
2023-12-30T08:09:48.945Z,11.30
2023-12-30T08:10:52.464Z,11.50
2023-12-30T08:12:02.114Z,12.40
2023-12-30T08:12:59.759Z,14.00
2023-12-30T08:14:04.154Z,12.80
2023-12-30T08:15:06.891Z,13.40
2023-12-30T08:16:09.730Z,13.70
2023-12-30T08:17:12.312Z,12.10
2023-12-30T08:18:14.750Z,12.90
2023-12-30T08:19:17.531Z,14.00
2023-12-30T08:20:21.422Z,14.60
2023-12-30T08:21:24.110Z,12.50
2023-12-30T08:22:26.178Z,14.10
2023-12-30T08:23:28.795Z,12.40
2023-12-30T08:24:31.286Z,11.70
2023-12-30T08:25:34.051Z,13.10
2023-12-30T08:26:37.529Z,11.91
2023-12-30T08:27:40.797Z,12.10
2023-12-30T08:28:43.133Z,12.20
2023-12-30T08:29:45.342Z,14.20
2023-12-30T08:30:48.496Z,13.90
2023-12-30T08:31:51.436Z,13.20
2023-12-30T08:32:53.884Z,13.30
2023-12-30T08:33:56.185Z,15.90
2023-12-30T08:34:58.731Z,16.30
2023-12-30T08:36:01.210Z,15.10
2023-12-30T08:38:22.508Z,14.50
2023-12-30T08:39:25.644Z,13.70
2023-12-30T08:40:28.935Z,15.00
2023-12-30T08:41:31.164Z,12.50
2023-12-30T08:42:33.892Z,16.40
2023-12-30T08:43:39.394Z,19.90
2023-12-30T08:44:41.680Z,17.70
2023-12-30T08:45:46.201Z,18.40
2023-12-30T08:46:50.470Z,16.70
2023-12-30T08:47:52.767Z,16.10
2023-12-30T08:48:56.133Z,17.30
2023-12-30T08:49:59.010Z,15.10
2023-12-30T08:51:01.852Z,14.30
2023-12-30T08:52:05.133Z,12.40
2023-12-30T08:53:07.440Z,15.20
2023-12-30T08:54:10.504Z,13.40
2023-12-30T08:55:13.102Z,14.20
2023-12-30T08:56:16.692Z,13.80
2023-12-30T08:57:19.302Z,14.40
2023-12-30T08:58:23.015Z,13.90
2023-12-30T08:59:25.329Z,14.30
2023-12-30T09:00:27.780Z,13.20
2023-12-30T09:01:30.277Z,12.90
2023-12-30T09:02:33.258Z,14.50
2023-12-30T09:03:36.647Z,15.55
2023-12-30T09:04:39.137Z,16.10
2023-12-30T09:05:41.667Z,15.30
2023-12-30T09:06:44.009Z,15.80
2023-12-30T09:09:17.690Z,15.40
2023-12-30T09:10:20.416Z,14.80
2023-12-30T09:11:23.557Z,14.10
2023-12-30T09:12:26.492Z,14.36
2023-12-30T09:13:30.545Z,14.82
2023-12-30T09:14:33.296Z,14.90
2023-12-30T09:15:36.025Z,15.90
2023-12-30T09:16:39.347Z,14.50
2023-12-30T09:17:43.692Z,15.60
2023-12-30T09:18:46.852Z,13.70
2023-12-30T09:19:49.226Z,13.91
2023-12-30T09:20:52.870Z,13.70
2023-12-30T09:21:55.551Z,15.30
2023-12-30T09:22:57.935Z,12.20
2023-12-30T09:24:00.711Z,16.30
2023-12-30T09:25:03.435Z,15.50
2023-12-30T09:26:06.796Z,13.70
2023-12-30T09:27:09.373Z,12.80
2023-12-30T09:28:11.705Z,16.00
2023-12-30T09:29:14.049Z,6.60
2023-12-30T09:30:17.409Z,14.36
2023-12-30T09:31:20.885Z,13.90
2023-12-30T09:32:23.588Z,12.10
2023-12-30T09:33:26.839Z,16.00
2023-12-30T09:34:38.483Z,11.55
2023-12-30T09:35:34.354Z,15.20
2023-12-30T09:36:38.670Z,15.60
2023-12-30T09:37:41.098Z,14.30
2023-12-30T09:38:43.651Z,15.30
2023-12-30T09:39:46.914Z,14.90
2023-12-30T09:40:51.396Z,13.90
2023-12-30T09:41:54.393Z,13.90
2023-12-30T09:43:00.455Z,16.09
2023-12-30T09:44:04.129Z,16.40
2023-12-30T09:45:08.671Z,16.80
2023-12-30T09:46:13.738Z,15.60
2023-12-30T09:47:19.440Z,17.00
2023-12-30T09:48:24.693Z,16.90
2023-12-30T09:49:29.297Z,16.90
2023-12-30T09:50:31.836Z,15.60
2023-12-30T09:51:34.072Z,17.40
2023-12-30T09:52:37.161Z,17.60
2023-12-30T09:53:39.588Z,16.55
2023-12-30T09:54:48.459Z,16.70
2023-12-30T09:55:47.151Z,15.30
2023-12-30T09:56:50.871Z,14.70
2023-12-30T09:57:53.675Z,12.64
2023-12-30T09:58:57.490Z,17.20
2023-12-30T10:00:01.297Z,16.00
2023-12-30T10:01:07.857Z,16.20
2023-12-30T10:02:11.410Z,16.18
2023-12-30T10:03:15.571Z,16.70
2023-12-30T10:04:18.114Z,12.40
2023-12-30T10:05:20.588Z,15.40
2023-12-30T10:06:25.479Z,15.50
2023-12-30T10:07:29.119Z,15.30
2023-12-30T10:08:31.682Z,17.90
2023-12-30T10:09:33.840Z,16.00
2023-12-30T10:10:45.509Z,15.50
2023-12-30T10:11:47.957Z,11.50
2023-12-30T10:12:50.677Z,13.40
2023-12-30T10:13:53.301Z,14.20
2023-12-30T10:14:55.556Z,16.50
2023-12-30T10:16:00.680Z,13.60
2023-12-30T10:17:03.756Z,13.90
2023-12-30T10:18:06.415Z,13.64
2023-12-30T10:19:12.964Z,12.70
2023-12-30T10:20:17.568Z,13.90
2023-12-30T10:21:19.705Z,14.00
2023-12-30T10:22:22.058Z,13.60
2023-12-30T10:23:30.918Z,13.10
2023-12-30T10:24:33.269Z,12.70
2023-12-30T10:25:36.235Z,14.40
2023-12-30T10:26:39.164Z,14.60
2023-12-30T10:27:41.993Z,14.40
2023-12-30T10:28:45.382Z,13.73
2023-12-30T10:29:57.075Z,13.40
2023-12-30T10:31:07.694Z,13.90
2023-12-30T10:32:10.553Z,14.00
2023-12-30T10:33:14.772Z,15.10
2023-12-30T10:35:42.801Z,17.80
2023-12-30T10:36:47.970Z,16.10
2023-12-30T10:37:50.634Z,15.50
2023-12-30T10:38:54.591Z,14.00
2023-12-30T10:40:00.281Z,13.70
2023-12-30T10:41:02.889Z,14.70
2023-12-30T10:42:06.552Z,14.90
2023-12-30T10:43:09.868Z,13.30
2023-12-30T10:44:13.167Z,13.20
2023-12-30T10:45:16.420Z,13.73
2023-12-30T10:46:20.301Z,13.20
2023-12-30T10:47:25.452Z,13.40
2023-12-30T10:48:30.854Z,13.20
2023-12-30T10:49:33.576Z,13.30
2023-12-30T10:51:55.659Z,15.40
2023-12-30T10:53:01.909Z,14.30
2023-12-30T10:54:07.195Z,15.00
2023-12-30T10:55:11.624Z,12.80
2023-12-30T10:56:20.324Z,13.90
2023-12-30T10:57:26.678Z,13.50
2023-12-30T10:58:32.965Z,12.50
2023-12-30T10:59:38.266Z,12.91
2023-12-30T11:00:43.257Z,13.70
2023-12-30T11:01:46.285Z,15.90
2023-12-30T11:02:48.997Z,12.70
2023-12-30T11:03:51.237Z,13.90
2023-12-30T11:04:56.396Z,14.30
2023-12-30T11:06:17.715Z,13.70
2023-12-30T11:07:21.332Z,12.10
2023-12-30T11:08:23.732Z,13.60
2023-12-30T11:09:26.882Z,11.00
2023-12-30T11:10:33.305Z,13.20
2023-12-30T11:11:53.212Z,14.20
2023-12-30T11:12:55.523Z,10.80
2023-12-30T11:13:58.905Z,11.90
2023-12-30T11:15:01.245Z,12.70
2023-12-30T11:16:18.650Z,13.70
2023-12-30T11:17:37.991Z,14.10
2023-12-30T11:18:52.543Z,14.30
2023-12-30T11:19:55.067Z,11.60
2023-12-30T11:20:59.185Z,15.10
2023-12-30T11:22:05.226Z,14.00
2023-12-30T11:23:07.939Z,14.60
2023-12-30T11:24:12.447Z,14.90
2023-12-30T11:25:15.817Z,15.90
2023-12-30T11:26:19.442Z,14.20
2023-12-30T11:27:23.104Z,14.30
2023-12-30T11:28:25.401Z,15.00
2023-12-30T11:29:29.876Z,15.00
2023-12-30T11:30:34.109Z,14.60
2023-12-30T11:31:38.120Z,14.80
2023-12-30T11:32:41.853Z,13.80
2023-12-30T11:33:44.295Z,13.60
2023-12-30T11:34:52.087Z,14.10
2023-12-30T11:35:55.469Z,13.70
2023-12-30T11:37:00.446Z,13.30
2023-12-30T11:38:09.768Z,12.40
2023-12-30T11:39:15.895Z,5.00
2023-12-30T11:40:21.813Z,12.40
2023-12-30T11:41:25.667Z,14.00
2023-12-30T11:42:37.471Z,13.40
2023-12-30T11:43:33.195Z,12.00
2023-12-30T11:44:35.490Z,12.73
2023-12-30T11:45:38.063Z,11.60
2023-12-30T11:46:42.563Z,12.20
2023-12-30T11:47:46.446Z,12.36
2023-12-30T11:48:48.724Z,8.20
2023-12-30T11:49:55.005Z,11.40
2023-12-30T11:50:58.408Z,11.90
2023-12-30T11:53:18.937Z,11.70
2023-12-30T11:54:22.294Z,11.70
2023-12-30T11:55:24.622Z,12.80
2023-12-30T11:56:27.709Z,12.20
2023-12-30T11:57:32.984Z,13.70
2023-12-30T11:58:35.381Z,12.40
2023-12-30T11:59:37.695Z,14.60
2023-12-30T12:00:40.036Z,11.90
2023-12-30T12:01:44.028Z,12.50
2023-12-30T12:02:46.564Z,12.00
2023-12-30T12:03:51.076Z,10.90
2023-12-30T12:04:53.947Z,11.90
2023-12-30T12:05:56.099Z,12.80
2023-12-30T12:07:00.223Z,12.36
2023-12-30T12:08:03.212Z,9.80
2023-12-30T12:09:08.042Z,11.27
2023-12-30T12:10:11.442Z,11.20
2023-12-30T12:11:13.728Z,10.92
2023-12-30T12:12:23.673Z,10.50
2023-12-30T12:13:27.608Z,13.20
2023-12-30T12:14:32.658Z,11.70
2023-12-30T12:15:35.689Z,12.40
2023-12-30T12:16:39.012Z,10.10
2023-12-30T12:17:42.274Z,11.55
2023-12-30T12:18:45.333Z,12.70
2023-12-30T12:19:48.145Z,11.00
2023-12-30T12:20:52.869Z,10.91
2023-12-30T12:22:00.135Z,11.40
2023-12-30T12:23:04.934Z,11.00
2023-12-30T12:24:08.649Z,10.60
2023-12-30T12:25:12.074Z,11.20
2023-12-30T12:26:17.500Z,12.10
2023-12-30T12:28:35.184Z,12.60
2023-12-30T12:29:48.785Z,11.10
2023-12-30T12:30:52.136Z,12.00
2023-12-30T12:31:55.319Z,12.27
2023-12-30T12:32:57.814Z,12.50
2023-12-30T12:34:02.150Z,13.10
2023-12-30T12:35:05.351Z,13.90
2023-12-30T12:36:09.437Z,13.20
2023-12-30T12:37:12.255Z,13.40
2023-12-30T12:38:15.053Z,12.80
2023-12-30T12:39:18.085Z,12.80
2023-12-30T12:40:20.942Z,11.70
2023-12-30T12:41:23.587Z,12.90
2023-12-30T12:42:30.725Z,11.50
2023-12-30T12:43:30.090Z,11.70
2023-12-30T12:44:32.809Z,11.70
2023-12-30T12:45:35.832Z,13.00
2023-12-30T12:46:39.358Z,11.60
2023-12-30T12:47:41.879Z,12.20
2023-12-30T12:48:44.776Z,10.55
2023-12-30T12:49:47.356Z,11.60
2023-12-30T12:50:51.053Z,11.80
2023-12-30T12:51:53.798Z,11.80
2023-12-30T12:52:56.481Z,12.20
2023-12-30T12:53:59.952Z,12.30
2023-12-30T12:55:03.669Z,12.20
2023-12-30T12:56:08.327Z,11.70
2023-12-30T12:57:10.607Z,13.00
2023-12-30T12:58:13.415Z,11.90
2023-12-30T12:59:15.659Z,11.10
2023-12-30T13:00:21.166Z,12.80
2023-12-30T13:01:24.263Z,12.90
2023-12-30T13:02:26.729Z,13.20
2023-12-30T13:03:29.725Z,10.70
2023-12-30T13:04:32.970Z,12.09
2023-12-30T13:05:35.374Z,11.00
2023-12-30T13:06:37.759Z,11.80
2023-12-30T13:07:40.939Z,10.40
2023-12-30T13:08:43.701Z,12.30
2023-12-30T13:09:46.140Z,12.10
2023-12-30T13:10:49.042Z,13.50
2023-12-30T13:11:51.473Z,13.82
2023-12-30T13:12:54.850Z,12.50
2023-12-30T13:13:57.102Z,13.80
2023-12-30T13:14:59.530Z,15.50
2023-12-30T13:16:02.342Z,17.20
2023-12-30T13:17:05.759Z,15.40
2023-12-30T13:18:09.060Z,16.80
2023-12-30T13:19:11.346Z,15.60
2023-12-30T13:20:15.680Z,15.20
2023-12-30T13:21:18.138Z,18.10
2023-12-30T13:22:20.932Z,18.60
2023-12-30T13:23:23.199Z,17.00
2023-12-30T13:24:25.915Z,12.20
2023-12-30T13:25:28.208Z,14.90
2023-12-30T13:26:31.449Z,14.00
2023-12-30T13:27:34.539Z,13.00
2023-12-30T13:28:37.075Z,13.91
2023-12-30T13:29:39.178Z,16.50
2023-12-30T13:30:41.627Z,14.80
2023-12-30T13:31:44.167Z,14.30
2023-12-30T13:32:46.589Z,14.80
2023-12-30T13:33:49.561Z,15.27
2023-12-30T13:34:51.745Z,15.20
2023-12-30T13:35:55.445Z,17.89
2023-12-30T13:36:59.329Z,18.60
2023-12-30T13:38:02.759Z,18.55
2023-12-30T13:39:05.559Z,16.60
2023-12-30T13:40:10.046Z,14.60
2023-12-30T13:41:12.869Z,14.09
2023-12-30T13:42:15.034Z,14.70
2023-12-30T13:43:17.237Z,13.50
2023-12-30T13:44:19.909Z,11.70
2023-12-30T13:45:23.334Z,9.40
2023-12-30T13:46:27.381Z,10.90
2023-12-30T13:47:29.592Z,11.40
2023-12-30T13:48:32.349Z,13.00
2023-12-30T13:49:35.714Z,12.10
2023-12-30T13:50:39.057Z,11.90
2023-12-30T13:51:43.392Z,12.45